Gabyvonne — FGD7870 — position and weather

sailwx.info

Track history (hours):
 
Tides and Currents Weather Stations Pressure Air Temp Water Temp Dewpoint Dewpoint Depression Visibility Wind Speed Wind Dir Waves Ship Positions

Gabyvonne

Last reported at 2017-Aug-16 10:42 UTC. Time now 2017-Sep-24 19:38 UTC.
Position N 47°42' W 003°31'.
Warning: this ship's position is 39 days out of date.

Length 10 m.

Type: Sailing vessel. MMSI: 227591090.

Date/timePositionNaut miles runAvg speedWind from/ knotsBaromVisibWave heightAir tempDewpointWater temp
2017-Aug-16 10:42N 47°42' W 003°31'1 4.8
2017-Aug-16 10:26N 47°41' W 003°29'2 4.7
2017-Aug-16 10:00N 47°41' W 003°26'2 3.8
2017-Aug-16 09:30N 47°42' W 003°23'2 3.1
2017-Aug-16 09:00N 47°43' W 003°22'0 0.8
2017-Aug-16 08:28N 47°43' W 003°21'0 0.0
2017-Aug-16 07:58N 47°43' W 003°21'0 0.0
2017-Aug-16 07:28N 47°43' W 003°21'0 0.0
2017-Aug-16 06:58N 47°43' W 003°21'0 0.0
2017-Aug-15 18:32N 47°43' W 003°21'0 0.0
2017-Aug-15 18:28N 47°43' W 003°21'0 0.0
2017-Aug-15 17:58N 47°43' W 003°21'0 0.0
2017-Aug-15 17:25N 47°43' W 003°21'0 0.0
2017-Aug-15 16:58N 47°43' W 003°21'0 0.0
2017-Aug-15 16:28N 47°43' W 003°21'0 0.0
2017-Aug-15 15:58N 47°43' W 003°21'0 0.0
2017-Aug-15 15:19N 47°43' W 003°21'0 0.0
2017-Aug-15 14:58N 47°43' W 003°21'0 0.0
2017-Aug-15 14:22N 47°43' W 003°21'0 1.3
2017-Aug-15 14:00N 47°43' W 003°22'2 3.9
2017-Aug-15 13:30N 47°41' W 003°22'2 3.5
2017-Aug-15 13:00N 47°39' W 003°20'3 5.6
2017-Aug-15 12:30N 47°37' W 003°18'2 4.9
2017-Aug-15 12:00N 47°35' W 003°16'2 3.8
2017-Aug-15 11:30N 47°33' W 003°15'2 4.0
2017-Aug-15 11:00N 47°32' W 003°13'3 5.2
2017-Aug-15 10:29N 47°29' W 003°10'6 3.2
2017-Aug-15 08:37N 47°27' W 003°02'3 0.2
2017-Aug-14 13:45N 47°29' W 003°06'1 2.8
2017-Aug-14 13:26N 47°30' W 003°05'1 3.3
2017-Aug-14 13:00N 47°30' W 003°02'1 2.1
2017-Aug-14 12:30N 47°30' W 003°01'2 3.5
2017-Aug-14 11:55N 47°30' W 002°58'5 0.1
2017-Aug-12 14:34N 47°35' W 002°56'3 3.9
2017-Aug-12 13:48N 47°32' W 002°55'2 3.7
2017-Aug-12 13:08N 47°29' W 002°55'3 5.1
2017-Aug-12 12:36N 47°27' W 002°54'1 5.3
2017-Aug-12 12:29N 47°26' W 002°53'13 0.6
2017-Aug-11 13:52N 47°26' W 003°13'2 4.7
2017-Aug-11 13:30N 47°28' W 003°14'3 5.2
2017-Aug-11 13:00N 47°30' W 003°15'2 3.4
2017-Aug-11 12:30N 47°32' W 003°15'3 5.6
2017-Aug-11 12:00N 47°34' W 003°17'3 5.7
2017-Aug-11 11:30N 47°37' W 003°19'3 5.2
2017-Aug-11 11:00N 47°39' W 003°21'2 4.4
2017-Aug-11 10:30N 47°41' W 003°22'2 4.7
2017-Aug-11 10:00N 47°43' W 003°22'1 2.6
2017-Aug-11 09:29N 47°45' W 003°21'0 0.3
2017-Aug-11 08:58N 47°45' W 003°22'0 0.0
2017-Aug-11 08:19N 47°45' W 003°22'0 0.0
2017-Aug-11 07:58N 47°45' W 003°22'0 0.0
2017-Aug-11 07:19N 47°45' W 003°22'0 0.0
2017-Aug-11 06:49N 47°45' W 003°22'0 0.0
2017-Aug-10 19:00N 47°45' W 003°22'0 0.0
2017-Aug-10 18:30N 47°45' W 003°22'0 0.0
2017-Aug-10 18:00N 47°45' W 003°22'0 0.0
2017-Aug-10 17:30N 47°45' W 003°22'0 0.0
2017-Aug-10 17:00N 47°45' W 003°22'0 0.0
2017-Aug-10 16:30N 47°45' W 003°22'0 0.0
2017-Aug-10 16:00N 47°45' W 003°22'0 0.0
2017-Aug-10 15:30N 47°45' W 003°22'0 0.0
2017-Aug-10 14:57N 47°45' W 003°22'0 0.0
2017-Aug-10 14:30N 47°45' W 003°22'0 0.0
2017-Aug-10 13:47N 47°45' W 003°22'0 0.0
2017-Aug-10 10:26N 47°45' W 003°22'0 0.0
2017-Aug-10 09:35N 47°45' W 003°22'0 0.0
2017-Aug-10 09:23N 47°45' W 003°22'0 0.0
2017-Aug-10 08:56N 47°45' W 003°22'0 0.0
2017-Aug-10 08:23N 47°45' W 003°21'0 0.0
2017-Aug-10 07:59N 47°45' W 003°22'0 0.0
2017-Aug-10 07:29N 47°45' W 003°22'0 0.0
2017-Aug-10 06:59N 47°45' W 003°22'0 0.0
2017-Aug-10 06:29N 47°45' W 003°22'0 0.0
2017-Aug-10 05:50N 47°45' W 003°22'0 0.0
2017-Aug-10 05:29N 47°45' W 003°21'0 0.0
2017-Aug-10 04:59N 47°45' W 003°22'0 0.0
2017-Aug-10 04:29N 47°45' W 003°22'0 0.0
2017-Aug-10 03:59N 47°45' W 003°22'0 0.0
2017-Aug-10 03:29N 47°45' W 003°22'0 0.0
2017-Aug-10 02:50N 47°45' W 003°22'0 0.0
2017-Aug-10 02:29N 47°45' W 003°22'0 0.0
2017-Aug-10 01:56N 47°45' W 003°22'0 0.0
2017-Aug-10 01:26N 47°45' W 003°22'0 0.0
2017-Aug-10 00:59N 47°45' W 003°22'0 0.0
2017-Aug-10 00:20N 47°45' W 003°22'0 0.0
2017-Aug-09 23:56N 47°45' W 003°22'0 0.0
2017-Aug-09 23:14N 47°45' W 003°22'0 0.0
2017-Aug-09 22:56N 47°45' W 003°22'0 0.0
2017-Aug-09 22:29N 47°45' W 003°22'0 0.0
2017-Aug-09 21:50N 47°45' W 003°22'0 0.0
2017-Aug-09 21:26N 47°45' W 003°22'0 0.0
2017-Aug-09 20:59N 47°45' W 003°22'0 0.0
2017-Aug-09 20:29N 47°45' W 003°22'0 0.0
2017-Aug-09 19:59N 47°45' W 003°22'0 0.0
2017-Aug-09 19:29N 47°45' W 003°22'0 0.0
2017-Aug-09 18:56N 47°45' W 003°22'0 0.0
2017-Aug-09 18:29N 47°45' W 003°22'0 0.0
2017-Aug-09 17:59N 47°45' W 003°22'0 0.0
2017-Aug-09 17:26N 47°45' W 003°22'0 0.0
2017-Aug-09 16:59N 47°45' W 003°22'0 0.0
2017-Aug-09 16:29N 47°45' W 003°22'0 0.0
2017-Aug-09 15:59N 47°45' W 003°22'0 0.0
2017-Aug-09 15:29N 47°45' W 003°22'0 0.0
2017-Aug-09 14:59N 47°45' W 003°22'0 0.3
2017-Aug-09 14:30N 47°45' W 003°21'1 1.5
2017-Aug-09 14:00N 47°44' W 003°21'2 3.7
2017-Aug-09 13:30N 47°42' W 003°22'2 4.0
2017-Aug-09 13:00N 47°41' W 003°25'  
Track history (hours):
 
Tides and Currents Weather Stations Pressure Air Temp Water Temp Dewpoint Dewpoint Depression Visibility Wind Speed Wind Dir Waves Ship Positions

Gabyvonne

Last reported at 2017-Aug-16 10:42 UTC. Time now 2017-Sep-24 19:38 UTC.
Position N 47°42' W 003°31'.
Warning: this ship's position is 39 days out of date.

Length 10 m.

Type: Sailing vessel. MMSI: 227591090.

Date/timePositionNaut miles runAvg speedWind from/ knotsBaromVisibWave heightAir tempDewpointWater temp
2017-Aug-16 10:42N 47°42' W 003°31'1 4.8
2017-Aug-16 10:26N 47°41' W 003°29'2 4.7
2017-Aug-16 10:00N 47°41' W 003°26'2 3.8
2017-Aug-16 09:30N 47°42' W 003°23'2 3.1
2017-Aug-16 09:00N 47°43' W 003°22'0 0.8
2017-Aug-16 08:28N 47°43' W 003°21'0 0.0
2017-Aug-16 07:58N 47°43' W 003°21'0 0.0
2017-Aug-16 07:28N 47°43' W 003°21'0 0.0
2017-Aug-16 06:58N 47°43' W 003°21'0 0.0
2017-Aug-15 18:32N 47°43' W 003°21'0 0.0
2017-Aug-15 18:28N 47°43' W 003°21'0 0.0
2017-Aug-15 17:58N 47°43' W 003°21'0 0.0
2017-Aug-15 17:25N 47°43' W 003°21'0 0.0
2017-Aug-15 16:58N 47°43' W 003°21'0 0.0
2017-Aug-15 16:28N 47°43' W 003°21'0 0.0
2017-Aug-15 15:58N 47°43' W 003°21'0 0.0
2017-Aug-15 15:19N 47°43' W 003°21'0 0.0
2017-Aug-15 14:58N 47°43' W 003°21'0 0.0
2017-Aug-15 14:22N 47°43' W 003°21'0 1.3
2017-Aug-15 14:00N 47°43' W 003°22'2 3.9
2017-Aug-15 13:30N 47°41' W 003°22'2 3.5
2017-Aug-15 13:00N 47°39' W 003°20'3 5.6
2017-Aug-15 12:30N 47°37' W 003°18'2 4.9
2017-Aug-15 12:00N 47°35' W 003°16'2 3.8
2017-Aug-15 11:30N 47°33' W 003°15'2 4.0
2017-Aug-15 11:00N 47°32' W 003°13'3 5.2
2017-Aug-15 10:29N 47°29' W 003°10'6 3.2
2017-Aug-15 08:37N 47°27' W 003°02'3 0.2
2017-Aug-14 13:45N 47°29' W 003°06'1 2.8
2017-Aug-14 13:26N 47°30' W 003°05'1 3.3
2017-Aug-14 13:00N 47°30' W 003°02'1 2.1
2017-Aug-14 12:30N 47°30' W 003°01'2 3.5
2017-Aug-14 11:55N 47°30' W 002°58'5 0.1
2017-Aug-12 14:34N 47°35' W 002°56'3 3.9
2017-Aug-12 13:48N 47°32' W 002°55'2 3.7
2017-Aug-12 13:08N 47°29' W 002°55'3 5.1
2017-Aug-12 12:36N 47°27' W 002°54'1 5.3
2017-Aug-12 12:29N 47°26' W 002°53'13 0.6
2017-Aug-11 13:52N 47°26' W 003°13'2 4.7
2017-Aug-11 13:30N 47°28' W 003°14'3 5.2
2017-Aug-11 13:00N 47°30' W 003°15'2 3.4
2017-Aug-11 12:30N 47°32' W 003°15'3 5.6
2017-Aug-11 12:00N 47°34' W 003°17'3 5.7
2017-Aug-11 11:30N 47°37' W 003°19'3 5.2
2017-Aug-11 11:00N 47°39' W 003°21'2 4.4
2017-Aug-11 10:30N 47°41' W 003°22'2 4.7
2017-Aug-11 10:00N 47°43' W 003°22'1 2.6
2017-Aug-11 09:29N 47°45' W 003°21'0 0.3
2017-Aug-11 08:58N 47°45' W 003°22'0 0.0
2017-Aug-11 08:19N 47°45' W 003°22'0 0.0
2017-Aug-11 07:58N 47°45' W 003°22'0 0.0
2017-Aug-11 07:19N 47°45' W 003°22'0 0.0
2017-Aug-11 06:49N 47°45' W 003°22'0 0.0
2017-Aug-10 19:00N 47°45' W 003°22'0 0.0
2017-Aug-10 18:30N 47°45' W 003°22'0 0.0
2017-Aug-10 18:00N 47°45' W 003°22'0 0.0
2017-Aug-10 17:30N 47°45' W 003°22'0 0.0
2017-Aug-10 17:00N 47°45' W 003°22'0 0.0
2017-Aug-10 16:30N 47°45' W 003°22'0 0.0
2017-Aug-10 16:00N 47°45' W 003°22'0 0.0
2017-Aug-10 15:30N 47°45' W 003°22'0 0.0
2017-Aug-10 14:57N 47°45' W 003°22'0 0.0
2017-Aug-10 14:30N 47°45' W 003°22'0 0.0
2017-Aug-10 13:47N 47°45' W 003°22'0 0.0
2017-Aug-10 10:26N 47°45' W 003°22'0 0.0
2017-Aug-10 09:35N 47°45' W 003°22'0 0.0
2017-Aug-10 09:23N 47°45' W 003°22'0 0.0
2017-Aug-10 08:56N 47°45' W 003°22'0 0.0
2017-Aug-10 08:23N 47°45' W 003°21'0 0.0
2017-Aug-10 07:59N 47°45' W 003°22'0 0.0
2017-Aug-10 07:29N 47°45' W 003°22'0 0.0
2017-Aug-10 06:59N 47°45' W 003°22'0 0.0
2017-Aug-10 06:29N 47°45' W 003°22'0 0.0
2017-Aug-10 05:50N 47°45' W 003°22'0 0.0
2017-Aug-10 05:29N 47°45' W 003°21'0 0.0
2017-Aug-10 04:59N 47°45' W 003°22'0 0.0
2017-Aug-10 04:29N 47°45' W 003°22'0 0.0
2017-Aug-10 03:59N 47°45' W 003°22'0 0.0
2017-Aug-10 03:29N 47°45' W 003°22'0 0.0
2017-Aug-10 02:50N 47°45' W 003°22'0 0.0
2017-Aug-10 02:29N 47°45' W 003°22'0 0.0
2017-Aug-10 01:56N 47°45' W 003°22'0 0.0
2017-Aug-10 01:26N 47°45' W 003°22'0 0.0
2017-Aug-10 00:59N 47°45' W 003°22'0 0.0
2017-Aug-10 00:20N 47°45' W 003°22'0 0.0
2017-Aug-09 23:56N 47°45' W 003°22'0 0.0
2017-Aug-09 23:14N 47°45' W 003°22'0 0.0
2017-Aug-09 22:56N 47°45' W 003°22'0 0.0
2017-Aug-09 22:29N 47°45' W 003°22'0 0.0
2017-Aug-09 21:50N 47°45' W 003°22'0 0.0
2017-Aug-09 21:26N 47°45' W 003°22'0 0.0
2017-Aug-09 20:59N 47°45' W 003°22'0 0.0
2017-Aug-09 20:29N 47°45' W 003°22'0 0.0
2017-Aug-09 19:59N 47°45' W 003°22'0 0.0
2017-Aug-09 19:29N 47°45' W 003°22'0 0.0
2017-Aug-09 18:56N 47°45' W 003°22'0 0.0
2017-Aug-09 18:29N 47°45' W 003°22'0 0.0
2017-Aug-09 17:59N 47°45' W 003°22'0 0.0
2017-Aug-09 17:26N 47°45' W 003°22'0 0.0
2017-Aug-09 16:59N 47°45' W 003°22'0 0.0
2017-Aug-09 16:29N 47°45' W 003°22'0 0.0
2017-Aug-09 15:59N 47°45' W 003°22'0 0.0
2017-Aug-09 15:29N 47°45' W 003°22'0 0.0
2017-Aug-09 14:59N 47°45' W 003°22'0 0.3
2017-Aug-09 14:30N 47°45' W 003°21'1 1.5
2017-Aug-09 14:00N 47°44' W 003°21'2 3.7
2017-Aug-09 13:30N 47°42' W 003°22'2 4.0
2017-Aug-09 13:00N 47°41' W 003°25'  

Dump ship's entire track history